sensor_id;sensor_type;location;lat;lon;timestamp;P1;durP1;ratioP1;P2;durP2;ratioP2
9294;SDS011;4686;44.496;11.324;2024-03-07T00:00:15;7.77;;;7.17;;
9294;SDS011;4686;44.496;11.324;2024-03-07T00:02:43;7.97;;;7.30;;
9294;SDS011;4686;44.496;11.324;2024-03-07T00:05:10;7.83;;;7.23;;
9294;SDS011;4686;44.496;11.324;2024-03-07T00:07:38;8.47;;;7.77;;
9294;SDS011;4686;44.496;11.324;2024-03-07T00:10:08;7.90;;;7.03;;
9294;SDS011;4686;44.496;11.324;2024-03-07T00:12:35;8.83;;;7.93;;
9294;SDS011;4686;44.496;11.324;2024-03-07T00:15:04;17.47;;;8.37;;
9294;SDS011;4686;44.496;11.324;2024-03-07T00:17:31;8.93;;;7.57;;
9294;SDS011;4686;44.496;11.324;2024-03-07T00:20:00;8.10;;;7.33;;
9294;SDS011;4686;44.496;11.324;2024-03-07T00:22:29;10.07;;;7.50;;
9294;SDS011;4686;44.496;11.324;2024-03-07T00:24:56;8.90;;;8.00;;
9294;SDS011;4686;44.496;11.324;2024-03-07T00:27:25;12.27;;;8.07;;
9294;SDS011;4686;44.496;11.324;2024-03-07T00:29:53;9.80;;;8.90;;
9294;SDS011;4686;44.496;11.324;2024-03-07T00:32:22;19.73;;;9.33;;
9294;SDS011;4686;44.496;11.324;2024-03-07T00:34:50;10.60;;;9.13;;
9294;SDS011;4686;44.496;11.324;2024-03-07T00:37:17;10.80;;;9.80;;
9294;SDS011;4686;44.496;11.324;2024-03-07T00:39:44;10.30;;;9.50;;
9294;SDS011;4686;44.496;11.324;2024-03-07T00:42:12;10.93;;;9.80;;
9294;SDS011;4686;44.496;11.324;2024-03-07T00:44:41;10.23;;;9.30;;
9294;SDS011;4686;44.496;11.324;2024-03-07T00:47:08;11.00;;;10.00;;
9294;SDS011;4686;44.496;11.324;2024-03-07T00:49:36;12.70;;;9.90;;
9294;SDS011;4686;44.496;11.324;2024-03-07T00:52:03;11.60;;;10.40;;
9294;SDS011;4686;44.496;11.324;2024-03-07T00:54:31;12.37;;;10.80;;
9294;SDS011;4686;44.496;11.324;2024-03-07T00:56:59;11.20;;;10.10;;
9294;SDS011;4686;44.496;11.324;2024-03-07T00:59:26;12.10;;;10.83;;
9294;SDS011;4686;44.496;11.324;2024-03-07T01:01:55;15.60;;;12.33;;
9294;SDS011;4686;44.496;11.324;2024-03-07T01:04:22;13.13;;;11.93;;
9294;SDS011;4686;44.496;11.324;2024-03-07T01:06:51;13.03;;;11.73;;
9294;SDS011;4686;44.496;11.324;2024-03-07T01:09:19;13.57;;;12.03;;
9294;SDS011;4686;44.496;11.324;2024-03-07T01:11:49;17.03;;;11.80;;
9294;SDS011;4686;44.496;11.324;2024-03-07T01:14:17;12.97;;;11.70;;
9294;SDS011;4686;44.496;11.324;2024-03-07T01:16:44;13.77;;;12.47;;
9294;SDS011;4686;44.496;11.324;2024-03-07T01:19:13;13.90;;;12.60;;
9294;SDS011;4686;44.496;11.324;2024-03-07T01:21:41;13.97;;;12.27;;
9294;SDS011;4686;44.496;11.324;2024-03-07T01:24:08;13.30;;;12.20;;
9294;SDS011;4686;44.496;11.324;2024-03-07T01:26:36;13.63;;;12.23;;
9294;SDS011;4686;44.496;11.324;2024-03-07T01:29:03;14.33;;;12.83;;
9294;SDS011;4686;44.496;11.324;2024-03-07T01:31:32;14.30;;;13.00;;
9294;SDS011;4686;44.496;11.324;2024-03-07T01:33:59;12.83;;;11.60;;
9294;SDS011;4686;44.496;11.324;2024-03-07T01:36:28;13.23;;;12.00;;
9294;SDS011;4686;44.496;11.324;2024-03-07T01:38:55;14.63;;;12.60;;
9294;SDS011;4686;44.496;11.324;2024-03-07T01:41:23;14.10;;;12.80;;
9294;SDS011;4686;44.496;11.324;2024-03-07T01:43:50;14.33;;;12.93;;
9294;SDS011;4686;44.496;11.324;2024-03-07T01:46:18;13.33;;;12.13;;
9294;SDS011;4686;44.496;11.324;2024-03-07T01:48:45;13.67;;;12.47;;
9294;SDS011;4686;44.496;11.324;2024-03-07T01:51:13;12.87;;;11.87;;
9294;SDS011;4686;44.496;11.324;2024-03-07T01:53:42;13.30;;;12.00;;
9294;SDS011;4686;44.496;11.324;2024-03-07T01:56:11;13.70;;;12.40;;
9294;SDS011;4686;44.496;11.324;2024-03-07T01:58:38;15.73;;;13.03;;
9294;SDS011;4686;44.496;11.324;2024-03-07T02:01:06;13.40;;;12.13;;
9294;SDS011;4686;44.496;11.324;2024-03-07T02:03:33;14.17;;;12.87;;
9294;SDS011;4686;44.496;11.324;2024-03-07T02:06:01;16.30;;;13.73;;
9294;SDS011;4686;44.496;11.324;2024-03-07T02:08:29;13.73;;;12.43;;
9294;SDS011;4686;44.496;11.324;2024-03-07T02:10:58;14.17;;;12.33;;
9294;SDS011;4686;44.496;11.324;2024-03-07T02:13:25;13.97;;;12.70;;
9294;SDS011;4686;44.496;11.324;2024-03-07T02:15:53;18.10;;;13.27;;
9294;SDS011;4686;44.496;11.324;2024-03-07T02:18:21;15.20;;;13.67;;
9294;SDS011;4686;44.496;11.324;2024-03-07T02:20:50;16.83;;;13.00;;
9294;SDS011;4686;44.496;11.324;2024-03-07T02:23:18;14.83;;;13.33;;
9294;SDS011;4686;44.496;11.324;2024-03-07T02:25:45;15.50;;;14.10;;
9294;SDS011;4686;44.496;11.324;2024-03-07T02:28:13;14.37;;;12.97;;
9294;SDS011;4686;44.496;11.324;2024-03-07T02:30:40;14.90;;;13.60;;
9294;SDS011;4686;44.496;11.324;2024-03-07T02:33:08;16.10;;;14.17;;
9294;SDS011;4686;44.496;11.324;2024-03-07T02:35:37;15.87;;;14.37;;
9294;SDS011;4686;44.496;11.324;2024-03-07T02:38:06;16.00;;;14.60;;
9294;SDS011;4686;44.496;11.324;2024-03-07T02:40:33;15.50;;;14.10;;
9294;SDS011;4686;44.496;11.324;2024-03-07T02:43:01;15.03;;;13.73;;
9294;SDS011;4686;44.496;11.324;2024-03-07T02:45:30;20.97;;;14.53;;
9294;SDS011;4686;44.496;11.324;2024-03-07T02:47:57;16.73;;;15.13;;
9294;SDS011;4686;44.496;11.324;2024-03-07T02:50:25;16.50;;;14.90;;
9294;SDS011;4686;44.496;11.324;2024-03-07T02:52:52;16.00;;;14.17;;
9294;SDS011;4686;44.496;11.324;2024-03-07T02:55:21;16.33;;;14.83;;
9294;SDS011;4686;44.496;11.324;2024-03-07T02:57:48;16.27;;;14.63;;
9294;SDS011;4686;44.496;11.324;2024-03-07T03:00:15;17.90;;;15.30;;
9294;SDS011;4686;44.496;11.324;2024-03-07T03:02:51;17.07;;;15.30;;
9294;SDS011;4686;44.496;11.324;2024-03-07T03:05:19;15.47;;;14.17;;
9294;SDS011;4686;44.496;11.324;2024-03-07T03:07:46;19.10;;;15.43;;
9294;SDS011;4686;44.496;11.324;2024-03-07T03:10:20;16.23;;;14.73;;
9294;SDS011;4686;44.496;11.324;2024-03-07T03:12:51;16.73;;;15.10;;
9294;SDS011;4686;44.496;11.324;2024-03-07T03:15:19;18.57;;;16.50;;
9294;SDS011;4686;44.496;11.324;2024-03-07T03:17:46;16.63;;;14.90;;
9294;SDS011;4686;44.496;11.324;2024-03-07T03:20:14;19.10;;;17.23;;
9294;SDS011;4686;44.496;11.324;2024-03-07T03:22:49;20.30;;;17.40;;
9294;SDS011;4686;44.496;11.324;2024-03-07T03:25:17;19.67;;;17.37;;
9294;SDS011;4686;44.496;11.324;2024-03-07T03:27:47;17.70;;;15.90;;
9294;SDS011;4686;44.496;11.324;2024-03-07T03:30:15;18.90;;;16.40;;
9294;SDS011;4686;44.496;11.324;2024-03-07T03:32:43;19.40;;;17.40;;
9294;SDS011;4686;44.496;11.324;2024-03-07T03:35:11;19.30;;;17.37;;
9294;SDS011;4686;44.496;11.324;2024-03-07T03:37:39;21.43;;;17.37;;
9294;SDS011;4686;44.496;11.324;2024-03-07T03:40:08;17.60;;;15.90;;
9294;SDS011;4686;44.496;11.324;2024-03-07T03:42:36;22.20;;;17.10;;
9294;SDS011;4686;44.496;11.324;2024-03-07T03:45:05;19.37;;;16.47;;
9294;SDS011;4686;44.496;11.324;2024-03-07T03:47:33;16.77;;;15.17;;
9294;SDS011;4686;44.496;11.324;2024-03-07T03:50:02;17.83;;;16.03;;
9294;SDS011;4686;44.496;11.324;2024-03-07T03:52:29;17.50;;;14.70;;
9294;SDS011;4686;44.496;11.324;2024-03-07T03:54:57;16.80;;;15.10;;
9294;SDS011;4686;44.496;11.324;2024-03-07T03:57:24;17.03;;;15.33;;
9294;SDS011;4686;44.496;11.324;2024-03-07T03:59:51;17.47;;;15.07;;
9294;SDS011;4686;44.496;11.324;2024-03-07T04:02:21;18.83;;;15.90;;
9294;SDS011;4686;44.496;11.324;2024-03-07T04:04:48;25.10;;;15.40;;
9294;SDS011;4686;44.496;11.324;2024-03-07T04:07:16;16.07;;;14.47;;
9294;SDS011;4686;44.496;11.324;2024-03-07T04:09:43;14.93;;;13.43;;
9294;SDS011;4686;44.496;11.324;2024-03-07T04:12:11;15.20;;;13.57;;
9294;SDS011;4686;44.496;11.324;2024-03-07T04:14:39;15.23;;;13.63;;
9294;SDS011;4686;44.496;11.324;2024-03-07T04:17:06;15.57;;;13.70;;
9294;SDS011;4686;44.496;11.324;2024-03-07T04:19:36;16.50;;;13.17;;
9294;SDS011;4686;44.496;11.324;2024-03-07T04:22:04;18.37;;;13.47;;
9294;SDS011;4686;44.496;11.324;2024-03-07T04:24:31;14.40;;;12.90;;
9294;SDS011;4686;44.496;11.324;2024-03-07T04:26:59;16.03;;;12.17;;
9294;SDS011;4686;44.496;11.324;2024-03-07T04:29:26;14.03;;;12.50;;
9294;SDS011;4686;44.496;11.324;2024-03-07T04:31:54;16.93;;;12.90;;
9294;SDS011;4686;44.496;11.324;2024-03-07T04:34:21;13.90;;;12.50;;
9294;SDS011;4686;44.496;11.324;2024-03-07T04:36:50;14.30;;;12.47;;
9294;SDS011;4686;44.496;11.324;2024-03-07T04:39:18;16.27;;;11.93;;
9294;SDS011;4686;44.496;11.324;2024-03-07T04:41:55;13.47;;;12.07;;
9294;SDS011;4686;44.496;11.324;2024-03-07T04:44:24;12.53;;;11.27;;
9294;SDS011;4686;44.496;11.324;2024-03-07T04:46:51;12.30;;;11.00;;
9294;SDS011;4686;44.496;11.324;2024-03-07T04:49:21;13.70;;;11.47;;
9294;SDS011;4686;44.496;11.324;2024-03-07T04:51:50;14.50;;;12.30;;
9294;SDS011;4686;44.496;11.324;2024-03-07T04:54:18;17.80;;;10.87;;
9294;SDS011;4686;44.496;11.324;2024-03-07T04:56:46;13.40;;;10.87;;
9294;SDS011;4686;44.496;11.324;2024-03-07T04:59:14;35.40;;;12.60;;
9294;SDS011;4686;44.496;11.324;2024-03-07T05:01:42;14.43;;;11.40;;
9294;SDS011;4686;44.496;11.324;2024-03-07T05:04:09;11.53;;;10.37;;
9294;SDS011;4686;44.496;11.324;2024-03-07T05:06:37;12.00;;;10.90;;
9294;SDS011;4686;44.496;11.324;2024-03-07T05:09:06;11.27;;;10.30;;
9294;SDS011;4686;44.496;11.324;2024-03-07T05:11:35;11.13;;;10.13;;
9294;SDS011;4686;44.496;11.324;2024-03-07T05:14:02;15.10;;;9.80;;
9294;SDS011;4686;44.496;11.324;2024-03-07T05:16:30;13.03;;;10.17;;
9294;SDS011;4686;44.496;11.324;2024-03-07T05:18:58;11.40;;;10.30;;
9294;SDS011;4686;44.496;11.324;2024-03-07T05:21:25;10.40;;;8.90;;
9294;SDS011;4686;44.496;11.324;2024-03-07T05:23:59;10.63;;;9.57;;
9294;SDS011;4686;44.496;11.324;2024-03-07T05:26:29;12.23;;;9.50;;
9294;SDS011;4686;44.496;11.324;2024-03-07T05:28:59;10.43;;;9.00;;
9294;SDS011;4686;44.496;11.324;2024-03-07T05:31:28;10.70;;;9.40;;
9294;SDS011;4686;44.496;11.324;2024-03-07T05:33:55;10.37;;;9.47;;
9294;SDS011;4686;44.496;11.324;2024-03-07T05:36:23;13.67;;;9.37;;
9294;SDS011;4686;44.496;11.324;2024-03-07T05:38:52;10.73;;;9.17;;
9294;SDS011;4686;44.496;11.324;2024-03-07T05:41:19;10.60;;;8.80;;
9294;SDS011;4686;44.496;11.324;2024-03-07T05:43:48;9.47;;;8.67;;
9294;SDS011;4686;44.496;11.324;2024-03-07T05:46:16;11.53;;;8.87;;
9294;SDS011;4686;44.496;11.324;2024-03-07T05:48:43;14.20;;;9.70;;
9294;SDS011;4686;44.496;11.324;2024-03-07T05:51:15;11.20;;;9.30;;
9294;SDS011;4686;44.496;11.324;2024-03-07T05:53:42;9.70;;;8.90;;
9294;SDS011;4686;44.496;11.324;2024-03-07T05:56:10;12.33;;;9.00;;
9294;SDS011;4686;44.496;11.324;2024-03-07T05:58:37;13.83;;;9.63;;
9294;SDS011;4686;44.496;11.324;2024-03-07T06:01:06;10.10;;;9.20;;
9294;SDS011;4686;44.496;11.324;2024-03-07T06:03:34;12.27;;;8.57;;
9294;SDS011;4686;44.496;11.324;2024-03-07T06:06:02;8.90;;;8.00;;
9294;SDS011;4686;44.496;11.324;2024-03-07T06:08:31;19.73;;;8.77;;
9294;SDS011;4686;44.496;11.324;2024-03-07T06:10:59;11.23;;;8.20;;
9294;SDS011;4686;44.496;11.324;2024-03-07T06:13:26;18.17;;;8.50;;
9294;SDS011;4686;44.496;11.324;2024-03-07T06:15:53;9.60;;;8.80;;
9294;SDS011;4686;44.496;11.324;2024-03-07T06:18:22;9.73;;;8.20;;
9294;SDS011;4686;44.496;11.324;2024-03-07T06:20:50;10.23;;;8.27;;
9294;SDS011;4686;44.496;11.324;2024-03-07T06:23:17;13.60;;;9.83;;
9294;SDS011;4686;44.496;11.324;2024-03-07T06:25:45;27.57;;;9.70;;
9294;SDS011;4686;44.496;11.324;2024-03-07T06:28:15;9.50;;;8.57;;
9294;SDS011;4686;44.496;11.324;2024-03-07T06:30:44;9.23;;;8.33;;
9294;SDS011;4686;44.496;11.324;2024-03-07T06:33:11;9.17;;;8.03;;
9294;SDS011;4686;44.496;11.324;2024-03-07T06:35:40;18.23;;;8.67;;
9294;SDS011;4686;44.496;11.324;2024-03-07T06:38:08;11.27;;;8.23;;
9294;SDS011;4686;44.496;11.324;2024-03-07T06:40:35;9.87;;;8.27;;
9294;SDS011;4686;44.496;11.324;2024-03-07T06:43:03;8.47;;;7.77;;
9294;SDS011;4686;44.496;11.324;2024-03-07T06:45:31;11.60;;;10.33;;
9294;SDS011;4686;44.496;11.324;2024-03-07T06:47:59;12.30;;;8.63;;
9294;SDS011;4686;44.496;11.324;2024-03-07T06:50:27;10.00;;;8.47;;
9294;SDS011;4686;44.496;11.324;2024-03-07T06:52:56;8.47;;;7.60;;
9294;SDS011;4686;44.496;11.324;2024-03-07T06:55:23;13.93;;;10.10;;
9294;SDS011;4686;44.496;11.324;2024-03-07T06:57:52;10.03;;;9.13;;
9294;SDS011;4686;44.496;11.324;2024-03-07T07:00:19;9.17;;;8.47;;
9294;SDS011;4686;44.496;11.324;2024-03-07T07:02:47;8.77;;;7.93;;
9294;SDS011;4686;44.496;11.324;2024-03-07T07:05:15;13.20;;;8.80;;
9294;SDS011;4686;44.496;11.324;2024-03-07T07:07:43;10.90;;;8.50;;
9294;SDS011;4686;44.496;11.324;2024-03-07T07:10:12;9.13;;;8.27;;
9294;SDS011;4686;44.496;11.324;2024-03-07T07:12:43;9.53;;;8.00;;
9294;SDS011;4686;44.496;11.324;2024-03-07T07:15:11;8.07;;;7.37;;
9294;SDS011;4686;44.496;11.324;2024-03-07T07:17:40;10.17;;;8.17;;
9294;SDS011;4686;44.496;11.324;2024-03-07T07:20:10;11.30;;;8.67;;
9294;SDS011;4686;44.496;11.324;2024-03-07T07:22:40;8.70;;;8.00;;
9294;SDS011;4686;44.496;11.324;2024-03-07T07:25:07;10.10;;;7.63;;
9294;SDS011;4686;44.496;11.324;2024-03-07T07:27:40;7.90;;;7.30;;
9294;SDS011;4686;44.496;11.324;2024-03-07T07:30:09;8.47;;;7.33;;
9294;SDS011;4686;44.496;11.324;2024-03-07T07:32:36;8.20;;;7.40;;
9294;SDS011;4686;44.496;11.324;2024-03-07T07:35:04;8.53;;;7.53;;
9294;SDS011;4686;44.496;11.324;2024-03-07T07:37:34;8.80;;;7.50;;
9294;SDS011;4686;44.496;11.324;2024-03-07T07:40:02;7.33;;;6.80;;
9294;SDS011;4686;44.496;11.324;2024-03-07T07:42:33;8.30;;;7.60;;
9294;SDS011;4686;44.496;11.324;2024-03-07T07:45:05;8.80;;;7.97;;
9294;SDS011;4686;44.496;11.324;2024-03-07T07:47:36;8.53;;;7.70;;
9294;SDS011;4686;44.496;11.324;2024-03-07T07:50:06;7.70;;;6.83;;
9294;SDS011;4686;44.496;11.324;2024-03-07T07:52:39;18.23;;;7.13;;
9294;SDS011;4686;44.496;11.324;2024-03-07T07:55:07;13.40;;;6.30;;
9294;SDS011;4686;44.496;11.324;2024-03-07T07:57:39;7.50;;;6.70;;
9294;SDS011;4686;44.496;11.324;2024-03-07T08:00:09;7.40;;;6.70;;
9294;SDS011;4686;44.496;11.324;2024-03-07T08:02:37;7.97;;;7.20;;
9294;SDS011;4686;44.496;11.324;2024-03-07T08:05:04;10.50;;;7.40;;
9294;SDS011;4686;44.496;11.324;2024-03-07T08:07:32;8.73;;;6.90;;
9294;SDS011;4686;44.496;11.324;2024-03-07T08:09:59;7.73;;;6.90;;
9294;SDS011;4686;44.496;11.324;2024-03-07T08:12:26;6.93;;;6.10;;
9294;SDS011;4686;44.496;11.324;2024-03-07T08:14:54;9.90;;;7.83;;
9294;SDS011;4686;44.496;11.324;2024-03-07T08:17:22;7.63;;;6.77;;
9294;SDS011;4686;44.496;11.324;2024-03-07T08:19:50;10.77;;;6.63;;
9294;SDS011;4686;44.496;11.324;2024-03-07T08:22:17;10.43;;;6.93;;
9294;SDS011;4686;44.496;11.324;2024-03-07T08:24:45;7.07;;;6.37;;
9294;SDS011;4686;44.496;11.324;2024-03-07T08:27:12;13.63;;;7.33;;
9294;SDS011;4686;44.496;11.324;2024-03-07T08:29:39;8.80;;;6.40;;
9294;SDS011;4686;44.496;11.324;2024-03-07T08:32:07;10.90;;;6.60;;
9294;SDS011;4686;44.496;11.324;2024-03-07T08:34:36;7.33;;;6.70;;
9294;SDS011;4686;44.496;11.324;2024-03-07T08:37:04;7.40;;;6.70;;
9294;SDS011;4686;44.496;11.324;2024-03-07T08:39:35;9.63;;;6.70;;
9294;SDS011;4686;44.496;11.324;2024-03-07T08:42:02;9.53;;;6.60;;
9294;SDS011;4686;44.496;11.324;2024-03-07T08:44:29;9.80;;;7.33;;
9294;SDS011;4686;44.496;11.324;2024-03-07T08:46:57;8.50;;;6.50;;
9294;SDS011;4686;44.496;11.324;2024-03-07T08:49:24;8.53;;;5.87;;
9294;SDS011;4686;44.496;11.324;2024-03-07T08:51:53;12.70;;;7.17;;
9294;SDS011;4686;44.496;11.324;2024-03-07T08:54:21;8.67;;;6.00;;
9294;SDS011;4686;44.496;11.324;2024-03-07T08:56:49;8.17;;;6.50;;
9294;SDS011;4686;44.496;11.324;2024-03-07T08:59:16;10.03;;;6.70;;
9294;SDS011;4686;44.496;11.324;2024-03-07T09:01:44;10.10;;;6.40;;
9294;SDS011;4686;44.496;11.324;2024-03-07T09:04:11;12.73;;;6.80;;
9294;SDS011;4686;44.496;11.324;2024-03-07T09:06:39;7.50;;;6.80;;
9294;SDS011;4686;44.496;11.324;2024-03-07T09:09:08;9.97;;;6.77;;
9294;SDS011;4686;44.496;11.324;2024-03-07T09:11:36;8.27;;;6.53;;
9294;SDS011;4686;44.496;11.324;2024-03-07T09:14:04;9.33;;;6.33;;
9294;SDS011;4686;44.496;11.324;2024-03-07T09:16:34;13.13;;;6.40;;
9294;SDS011;4686;44.496;11.324;2024-03-07T09:19:01;10.23;;;7.70;;
9294;SDS011;4686;44.496;11.324;2024-03-07T09:21:29;7.50;;;6.80;;
9294;SDS011;4686;44.496;11.324;2024-03-07T09:23:56;6.50;;;5.90;;
9294;SDS011;4686;44.496;11.324;2024-03-07T09:26:25;8.80;;;6.50;;
9294;SDS011;4686;44.496;11.324;2024-03-07T09:28:53;8.73;;;6.63;;
9294;SDS011;4686;44.496;11.324;2024-03-07T09:31:20;9.43;;;6.37;;
9294;SDS011;4686;44.496;11.324;2024-03-07T09:33:48;8.90;;;5.83;;
9294;SDS011;4686;44.496;11.324;2024-03-07T09:36:16;6.73;;;5.90;;
9294;SDS011;4686;44.496;11.324;2024-03-07T09:38:44;7.00;;;6.40;;
9294;SDS011;4686;44.496;11.324;2024-03-07T09:41:11;6.30;;;5.70;;
9294;SDS011;4686;44.496;11.324;2024-03-07T09:43:43;8.03;;;6.80;;
9294;SDS011;4686;44.496;11.324;2024-03-07T09:46:11;6.63;;;5.97;;
9294;SDS011;4686;44.496;11.324;2024-03-07T09:48:39;11.40;;;6.00;;
9294;SDS011;4686;44.496;11.324;2024-03-07T09:51:06;7.20;;;5.27;;
9294;SDS011;4686;44.496;11.324;2024-03-07T09:53:34;6.30;;;5.17;;
9294;SDS011;4686;44.496;11.324;2024-03-07T09:56:04;6.40;;;5.77;;
9294;SDS011;4686;44.496;11.324;2024-03-07T09:58:33;5.90;;;5.40;;
9294;SDS011;4686;44.496;11.324;2024-03-07T10:01:03;13.07;;;4.03;;
9294;SDS011;4686;44.496;11.324;2024-03-07T10:03:37;4.67;;;4.37;;
9294;SDS011;4686;44.496;11.324;2024-03-07T10:06:05;4.63;;;4.23;;
9294;SDS011;4686;44.496;11.324;2024-03-07T10:08:35;7.17;;;4.17;;
9294;SDS011;4686;44.496;11.324;2024-03-07T10:11:04;5.00;;;4.17;;
9294;SDS011;4686;44.496;11.324;2024-03-07T10:13:33;7.67;;;4.53;;
9294;SDS011;4686;44.496;11.324;2024-03-07T10:16:03;7.63;;;4.67;;
9294;SDS011;4686;44.496;11.324;2024-03-07T10:18:31;4.40;;;4.07;;
9294;SDS011;4686;44.496;11.324;2024-03-07T10:20:59;4.93;;;4.43;;
9294;SDS011;4686;44.496;11.324;2024-03-07T10:23:29;4.50;;;4.10;;
9294;SDS011;4686;44.496;11.324;2024-03-07T10:25:59;4.83;;;4.33;;
9294;SDS011;4686;44.496;11.324;2024-03-07T10:28:26;4.90;;;4.50;;
9294;SDS011;4686;44.496;11.324;2024-03-07T10:30:53;4.53;;;4.13;;
9294;SDS011;4686;44.496;11.324;2024-03-07T10:33:25;4.93;;;4.40;;
9294;SDS011;4686;44.496;11.324;2024-03-07T10:35:53;5.27;;;4.67;;
9294;SDS011;4686;44.496;11.324;2024-03-07T10:38:20;5.10;;;4.57;;
9294;SDS011;4686;44.496;11.324;2024-03-07T10:40:52;7.57;;;4.67;;
9294;SDS011;4686;44.496;11.324;2024-03-07T10:43:20;4.40;;;4.10;;
9294;SDS011;4686;44.496;11.324;2024-03-07T10:45:48;4.27;;;3.90;;
9294;SDS011;4686;44.496;11.324;2024-03-07T10:48:18;4.40;;;4.10;;
9294;SDS011;4686;44.496;11.324;2024-03-07T10:50:51;4.30;;;3.90;;
9294;SDS011;4686;44.496;11.324;2024-03-07T10:53:24;4.50;;;4.13;;
9294;SDS011;4686;44.496;11.324;2024-03-07T10:55:59;4.10;;;3.80;;
9294;SDS011;4686;44.496;11.324;2024-03-07T10:58:34;7.63;;;4.37;;
9294;SDS011;4686;44.496;11.324;2024-03-07T11:01:05;4.73;;;4.33;;
9294;SDS011;4686;44.496;11.324;2024-03-07T11:03:36;5.47;;;4.27;;
9294;SDS011;4686;44.496;11.324;2024-03-07T11:06:05;4.03;;;3.73;;
9294;SDS011;4686;44.496;11.324;2024-03-07T11:08:37;4.40;;;4.07;;
9294;SDS011;4686;44.496;11.324;2024-03-07T11:11:04;4.50;;;3.93;;
9294;SDS011;4686;44.496;11.324;2024-03-07T11:13:33;4.50;;;4.10;;
9294;SDS011;4686;44.496;11.324;2024-03-07T11:16:00;4.73;;;4.30;;
9294;SDS011;4686;44.496;11.324;2024-03-07T11:18:29;7.60;;;4.27;;
9294;SDS011;4686;44.496;11.324;2024-03-07T11:20:56;5.20;;;4.70;;
9294;SDS011;4686;44.496;11.324;2024-03-07T11:23:28;9.10;;;5.00;;
9294;SDS011;4686;44.496;11.324;2024-03-07T11:26:04;5.77;;;4.30;;
9294;SDS011;4686;44.496;11.324;2024-03-07T11:28:32;7.13;;;4.23;;
9294;SDS011;4686;44.496;11.324;2024-03-07T11:36:42;9.07;;;4.20;;
9294;SDS011;4686;44.496;11.324;2024-03-07T11:41:54;6.30;;;4.43;;
9294;SDS011;4686;44.496;11.324;2024-03-07T11:44:21;5.67;;;5.23;;
9294;SDS011;4686;44.496;11.324;2024-03-07T11:46:49;7.37;;;4.87;;
9294;SDS011;4686;44.496;11.324;2024-03-07T11:49:16;7.57;;;4.83;;
9294;SDS011;4686;44.496;11.324;2024-03-07T11:51:44;5.60;;;4.67;;
9294;SDS011;4686;44.496;11.324;2024-03-07T11:54:13;13.50;;;5.13;;
9294;SDS011;4686;44.496;11.324;2024-03-07T11:56:40;5.80;;;5.23;;
9294;SDS011;4686;44.496;11.324;2024-03-07T11:59:09;12.63;;;8.23;;
9294;SDS011;4686;44.496;11.324;2024-03-07T12:01:38;6.07;;;4.63;;
9294;SDS011;4686;44.496;11.324;2024-03-07T12:04:07;5.47;;;4.97;;
9294;SDS011;4686;44.496;11.324;2024-03-07T12:06:38;7.50;;;4.50;;
9294;SDS011;4686;44.496;11.324;2024-03-07T12:09:06;6.53;;;5.47;;
9294;SDS011;4686;44.496;11.324;2024-03-07T12:11:41;7.47;;;5.20;;
9294;SDS011;4686;44.496;11.324;2024-03-07T12:14:09;6.50;;;5.43;;
9294;SDS011;4686;44.496;11.324;2024-03-07T12:16:37;5.27;;;4.87;;
9294;SDS011;4686;44.496;11.324;2024-03-07T12:19:04;5.40;;;4.90;;
9294;SDS011;4686;44.496;11.324;2024-03-07T12:21:31;6.10;;;4.80;;
9294;SDS011;4686;44.496;11.324;2024-03-07T12:24:02;5.30;;;4.87;;
9294;SDS011;4686;44.496;11.324;2024-03-07T12:26:37;4.87;;;4.37;;
9294;SDS011;4686;44.496;11.324;2024-03-07T12:29:09;5.07;;;4.60;;
9294;SDS011;4686;44.496;11.324;2024-03-07T12:31:38;10.07;;;5.00;;
9294;SDS011;4686;44.496;11.324;2024-03-07T12:34:05;5.43;;;5.03;;
9294;SDS011;4686;44.496;11.324;2024-03-07T12:36:34;7.87;;;4.80;;
9294;SDS011;4686;44.496;11.324;2024-03-07T12:39:20;15.17;;;5.20;;
9294;SDS011;4686;44.496;11.324;2024-03-07T12:41:51;6.50;;;5.40;;
9294;SDS011;4686;44.496;11.324;2024-03-07T12:44:20;7.13;;;5.47;;
9294;SDS011;4686;44.496;11.324;2024-03-07T12:46:48;8.43;;;5.03;;
9294;SDS011;4686;44.496;11.324;2024-03-07T12:49:16;6.03;;;5.43;;
9294;SDS011;4686;44.496;11.324;2024-03-07T12:51:44;7.23;;;5.53;;
9294;SDS011;4686;44.496;11.324;2024-03-07T12:54:11;8.63;;;5.27;;
9294;SDS011;4686;44.496;11.324;2024-03-07T12:56:39;15.63;;;6.37;;
9294;SDS011;4686;44.496;11.324;2024-03-07T12:59:06;22.00;;;18.30;;
9294;SDS011;4686;44.496;11.324;2024-03-07T13:01:36;6.63;;;5.47;;
9294;SDS011;4686;44.496;11.324;2024-03-07T13:04:09;6.73;;;5.63;;
9294;SDS011;4686;44.496;11.324;2024-03-07T13:06:37;7.43;;;5.53;;
9294;SDS011;4686;44.496;11.324;2024-03-07T13:09:08;6.10;;;5.00;;
9294;SDS011;4686;44.496;11.324;2024-03-07T13:11:36;6.70;;;5.80;;
9294;SDS011;4686;44.496;11.324;2024-03-07T13:14:06;5.70;;;5.20;;
9294;SDS011;4686;44.496;11.324;2024-03-07T13:16:35;5.13;;;4.73;;
9294;SDS011;4686;44.496;11.324;2024-03-07T13:19:04;24.50;;;5.43;;
9294;SDS011;4686;44.496;11.324;2024-03-07T13:21:31;10.33;;;5.27;;
9294;SDS011;4686;44.496;11.324;2024-03-07T13:24:00;14.50;;;5.87;;
9294;SDS011;4686;44.496;11.324;2024-03-07T13:26:27;5.87;;;5.30;;
9294;SDS011;4686;44.496;11.324;2024-03-07T13:28:57;6.00;;;5.50;;
9294;SDS011;4686;44.496;11.324;2024-03-07T13:31:26;6.23;;;5.63;;
9294;SDS011;4686;44.496;11.324;2024-03-07T13:33:55;10.53;;;6.20;;
9294;SDS011;4686;44.496;11.324;2024-03-07T13:36:23;6.60;;;5.13;;
9294;SDS011;4686;44.496;11.324;2024-03-07T13:38:51;6.03;;;5.30;;
9294;SDS011;4686;44.496;11.324;2024-03-07T13:41:21;7.00;;;5.57;;
9294;SDS011;4686;44.496;11.324;2024-03-07T13:43:50;6.30;;;5.70;;
9294;SDS011;4686;44.496;11.324;2024-03-07T13:46:19;9.93;;;6.10;;
9294;SDS011;4686;44.496;11.324;2024-03-07T13:48:47;7.93;;;5.70;;
9294;SDS011;4686;44.496;11.324;2024-03-07T13:51:17;7.00;;;6.03;;
9294;SDS011;4686;44.496;11.324;2024-03-07T13:53:46;6.40;;;5.60;;
9294;SDS011;4686;44.496;11.324;2024-03-07T14:02:02;7.20;;;6.50;;
9294;SDS011;4686;44.496;11.324;2024-03-07T14:04:38;13.97;;;6.23;;
9294;SDS011;4686;44.496;11.324;2024-03-07T14:07:15;8.43;;;5.83;;
9294;SDS011;4686;44.496;11.324;2024-03-07T14:09:53;14.53;;;6.53;;
9294;SDS011;4686;44.496;11.324;2024-03-07T14:12:35;10.50;;;5.47;;
9294;SDS011;4686;44.496;11.324;2024-03-07T14:18:00;8.30;;;6.13;;
9294;SDS011;4686;44.496;11.324;2024-03-07T14:20:48;7.13;;;6.40;;
9294;SDS011;4686;44.496;11.324;2024-03-07T14:23:25;9.20;;;6.10;;
9294;SDS011;4686;44.496;11.324;2024-03-07T14:26:05;8.20;;;6.00;;
9294;SDS011;4686;44.496;11.324;2024-03-07T14:28:50;7.53;;;6.70;;
9294;SDS011;4686;44.496;11.324;2024-03-07T14:31:19;6.97;;;6.27;;
9294;SDS011;4686;44.496;11.324;2024-03-07T14:33:48;7.40;;;6.00;;
9294;SDS011;4686;44.496;11.324;2024-03-07T14:36:17;10.93;;;6.70;;
9294;SDS011;4686;44.496;11.324;2024-03-07T14:38:46;5.93;;;5.40;;
9294;SDS011;4686;44.496;11.324;2024-03-07T14:41:17;6.83;;;5.60;;
9294;SDS011;4686;44.496;11.324;2024-03-07T14:43:44;7.53;;;6.37;;
9294;SDS011;4686;44.496;11.324;2024-03-07T14:46:13;10.40;;;6.33;;
9294;SDS011;4686;44.496;11.324;2024-03-07T14:48:41;8.63;;;6.13;;
9294;SDS011;4686;44.496;11.324;2024-03-07T14:51:09;12.03;;;6.20;;
9294;SDS011;4686;44.496;11.324;2024-03-07T14:53:38;7.30;;;6.10;;
9294;SDS011;4686;44.496;11.324;2024-03-07T14:56:06;8.33;;;6.20;;
9294;SDS011;4686;44.496;11.324;2024-03-07T14:58:35;7.53;;;5.90;;
9294;SDS011;4686;44.496;11.324;2024-03-07T15:01:03;10.80;;;6.30;;
9294;SDS011;4686;44.496;11.324;2024-03-07T15:03:31;10.43;;;5.67;;
9294;SDS011;4686;44.496;11.324;2024-03-07T15:05:59;6.80;;;5.57;;
9294;SDS011;4686;44.496;11.324;2024-03-07T15:08:27;9.93;;;6.87;;
9294;SDS011;4686;44.496;11.324;2024-03-07T15:10:55;13.53;;;6.87;;
9294;SDS011;4686;44.496;11.324;2024-03-07T15:13:23;8.37;;;6.20;;
9294;SDS011;4686;44.496;11.324;2024-03-07T15:15:52;12.80;;;6.70;;